createdAt,value
2023-03-28T00:01:23.470Z,12.87
2023-03-28T00:03:52.644Z,15.43
2023-03-28T00:06:22.020Z,16.50
2023-03-28T00:08:51.214Z,12.47
2023-03-28T00:11:20.892Z,15.30
2023-03-28T00:13:53.624Z,14.40
2023-03-28T00:16:21.679Z,11.90
2023-03-28T00:18:51.039Z,9.90
2023-03-28T00:21:23.508Z,14.13
2023-03-28T00:23:53.367Z,12.47
2023-03-28T00:26:22.120Z,8.23
2023-03-28T00:28:51.928Z,12.13
2023-03-28T00:31:20.337Z,9.70
2023-03-28T00:33:48.485Z,10.43
2023-03-28T00:36:18.735Z,10.23
2023-03-28T00:38:46.757Z,9.53
2023-03-28T00:41:16.128Z,13.70
2023-03-28T00:43:45.433Z,11.00
2023-03-28T00:46:22.574Z,15.47
2023-03-28T00:48:53.105Z,13.13
2023-03-28T00:51:23.137Z,12.00
2023-03-28T00:53:52.464Z,9.63
2023-03-28T00:56:23.349Z,13.17
2023-03-28T00:58:52.461Z,8.97
2023-03-28T01:01:22.083Z,17.07
2023-03-28T01:03:56.259Z,19.10
2023-03-28T01:06:25.071Z,18.90
2023-03-28T01:08:53.754Z,14.60
2023-03-28T01:11:21.906Z,13.33
2023-03-28T01:13:51.910Z,11.17
2023-03-28T01:16:23.257Z,16.83
2023-03-28T01:18:52.586Z,14.63
2023-03-28T01:21:37.965Z,16.40
2023-03-28T01:24:29.921Z,15.47
2023-03-28T01:27:00.435Z,13.97
2023-03-28T01:30:01.084Z,13.37
2023-03-28T01:32:51.519Z,18.23
2023-03-28T01:35:51.645Z,13.17
2023-03-28T01:38:24.260Z,12.43
2023-03-28T01:40:56.117Z,15.30
2023-03-28T01:43:32.028Z,10.80
2023-03-28T01:46:03.671Z,16.47
2023-03-28T01:48:39.726Z,13.47
2023-03-28T01:51:11.866Z,9.63
2023-03-28T01:53:45.411Z,13.43
2023-03-28T01:56:18.789Z,14.20
2023-03-28T01:58:48.847Z,16.07
2023-03-28T02:01:23.082Z,9.70
2023-03-28T02:03:55.345Z,13.03
2023-03-28T02:06:24.430Z,16.93
2023-03-28T02:08:56.901Z,12.07
2023-03-28T02:11:26.157Z,12.13
2023-03-28T02:13:57.543Z,10.30
2023-03-28T02:16:26.298Z,10.93
2023-03-28T02:18:56.594Z,13.83
2023-03-28T02:21:27.128Z,12.43
2023-03-28T02:23:56.858Z,16.03
2023-03-28T02:26:25.210Z,12.90
2023-03-28T02:28:54.909Z,14.67
2023-03-28T02:31:23.919Z,17.37
2023-03-28T02:33:53.615Z,13.97
2023-03-28T02:36:35.322Z,16.67
2023-03-28T02:39:38.957Z,15.50
2023-03-28T02:42:26.427Z,12.03
2023-03-28T02:45:04.930Z,12.77
2023-03-28T02:47:36.845Z,11.07
2023-03-28T02:50:14.644Z,16.33
2023-03-28T02:52:51.945Z,11.40
2023-03-28T02:55:24.125Z,8.30
2023-03-28T02:57:56.272Z,11.03
2023-03-28T03:00:24.395Z,11.30
2023-03-28T03:02:53.083Z,13.50
2023-03-28T03:05:22.363Z,12.63
2023-03-28T03:07:51.542Z,13.03
2023-03-28T03:10:20.153Z,11.50
2023-03-28T03:12:48.142Z,17.67
2023-03-28T03:15:18.080Z,9.63
2023-03-28T03:17:47.162Z,11.70
2023-03-28T03:20:15.297Z,10.80
2023-03-28T03:22:43.207Z,14.93
2023-03-28T03:25:14.603Z,13.07
2023-03-28T03:27:42.700Z,12.70
2023-03-28T03:30:11.926Z,11.10
2023-03-28T03:32:41.398Z,9.83
2023-03-28T03:35:09.420Z,8.17
2023-03-28T03:37:37.349Z,13.00
2023-03-28T03:40:06.990Z,9.80
2023-03-28T03:42:35.127Z,8.23
2023-03-28T03:45:03.096Z,10.17
2023-03-28T03:47:31.100Z,9.53
2023-03-28T03:50:00.460Z,11.63
2023-03-28T03:52:28.629Z,9.40
2023-03-28T03:54:56.550Z,10.27
2023-03-28T03:57:26.650Z,9.70
2023-03-28T03:59:54.556Z,9.70
2023-03-28T04:02:22.566Z,7.43
2023-03-28T04:04:50.511Z,13.80
2023-03-28T04:07:19.774Z,10.70
2023-03-28T04:09:47.747Z,10.47
2023-03-28T04:12:15.676Z,10.27
2023-03-28T04:14:43.587Z,10.93
2023-03-28T04:17:13.711Z,7.23
2023-03-28T04:19:41.703Z,8.20
2023-03-28T04:22:12.783Z,10.63
2023-03-28T04:24:44.720Z,10.67
2023-03-28T04:27:13.628Z,8.83
2023-03-28T04:29:41.844Z,11.20
2023-03-28T04:32:12.822Z,8.23
2023-03-28T04:34:40.785Z,15.47
2023-03-28T04:37:09.088Z,12.03
2023-03-28T04:39:36.953Z,9.87
2023-03-28T04:42:06.546Z,11.87
2023-03-28T04:44:34.448Z,7.13
2023-03-28T04:47:02.424Z,11.57
2023-03-28T04:49:30.339Z,11.03
2023-03-28T04:51:58.260Z,11.67
2023-03-28T04:54:26.997Z,10.13
2023-03-28T04:56:54.976Z,11.10
2023-03-28T04:59:24.286Z,12.57
2023-03-28T05:01:52.603Z,12.17
2023-03-28T05:04:22.034Z,12.83
2023-03-28T05:06:51.140Z,13.43
2023-03-28T05:09:19.056Z,10.50
2023-03-28T05:11:47.501Z,18.67
2023-03-28T05:14:15.770Z,11.60
2023-03-28T05:16:45.093Z,13.17
2023-03-28T05:19:13.076Z,10.77
2023-03-28T05:21:41.792Z,13.70
2023-03-28T05:24:10.330Z,9.57
2023-03-28T05:26:38.258Z,9.63
2023-03-28T05:29:06.569Z,18.17
2023-03-28T05:31:34.712Z,9.53
2023-03-28T05:34:04.123Z,15.73
2023-03-28T05:36:31.987Z,18.07
2023-03-28T05:38:59.867Z,13.87
2023-03-28T05:41:28.174Z,12.83
2023-03-28T05:43:56.210Z,10.10
2023-03-28T05:46:24.186Z,15.63
2023-03-28T05:48:52.127Z,11.50
2023-03-28T05:51:21.498Z,20.73
2023-03-28T05:53:50.131Z,15.17
2023-03-28T05:56:18.046Z,12.90
2023-03-28T05:58:46.001Z,11.50
2023-03-28T06:01:18.429Z,12.90
2023-03-28T06:03:46.586Z,11.40
2023-03-28T06:06:15.245Z,11.87
2023-03-28T06:08:44.540Z,11.00
2023-03-28T06:11:12.523Z,11.23
2023-03-28T06:13:40.430Z,13.73
2023-03-28T06:16:08.719Z,14.37
2023-03-28T06:18:36.627Z,9.60
2023-03-28T06:21:04.931Z,11.80
2023-03-28T06:23:32.818Z,11.37
2023-03-28T06:26:03.422Z,11.70
2023-03-28T06:28:31.332Z,14.57
2023-03-28T06:30:59.503Z,9.17
2023-03-28T06:33:27.574Z,12.67
2023-03-28T06:35:56.171Z,9.93
2023-03-28T06:38:24.179Z,10.53
2023-03-28T06:40:52.123Z,9.40
2023-03-28T06:43:21.427Z,12.07
2023-03-28T06:45:49.367Z,12.93
2023-03-28T06:48:17.306Z,15.13
2023-03-28T06:50:50.037Z,10.17
2023-03-28T06:53:18.258Z,10.63
2023-03-28T06:55:46.390Z,10.93
2023-03-28T06:58:14.282Z,7.97
2023-03-28T07:00:43.582Z,9.10
2023-03-28T07:03:11.683Z,8.20
2023-03-28T07:05:40.540Z,8.37
2023-03-28T07:08:08.607Z,10.17
2023-03-28T07:10:37.009Z,9.83
2023-03-28T07:13:05.090Z,8.20
2023-03-28T07:15:33.076Z,12.68
2023-03-28T07:18:02.651Z,12.45
2023-03-28T07:20:30.672Z,9.85
2023-03-28T07:22:58.608Z,11.57
2023-03-28T07:25:26.548Z,10.15
2023-03-28T07:27:54.419Z,8.02
2023-03-28T07:30:22.338Z,10.57
2023-03-28T07:32:55.209Z,11.23
2023-03-28T07:35:32.891Z,6.25
2023-03-28T07:38:00.814Z,11.43
2023-03-28T07:40:28.714Z,9.27
2023-03-28T07:42:56.628Z,9.45
2023-03-28T07:45:24.539Z,6.78
2023-03-28T07:47:52.473Z,6.40
2023-03-28T07:50:21.881Z,8.18
2023-03-28T07:52:57.530Z,7.60
2023-03-28T07:55:26.529Z,8.70
2023-03-28T07:57:55.485Z,9.60
2023-03-28T08:00:24.284Z,7.75
2023-03-28T08:02:52.605Z,7.57
2023-03-28T08:05:21.815Z,8.88
2023-03-28T08:07:52.366Z,6.70
2023-03-28T08:10:21.790Z,7.85
2023-03-28T08:12:49.724Z,12.07
2023-03-28T08:15:17.734Z,6.60
2023-03-28T08:17:45.799Z,9.75
2023-03-28T08:20:13.956Z,6.00
2023-03-28T08:22:42.290Z,6.40
2023-03-28T08:25:10.701Z,12.02
2023-03-28T08:27:39.963Z,6.38
2023-03-28T08:30:09.003Z,9.68
2023-03-28T08:32:36.937Z,12.35
2023-03-28T08:35:06.500Z,11.70
2023-03-28T08:37:34.550Z,10.23
2023-03-28T08:40:02.948Z,6.70
2023-03-28T08:42:42.734Z,11.95
2023-03-28T08:45:23.187Z,9.32
2023-03-28T08:48:00.401Z,7.80
2023-03-28T08:50:33.177Z,5.53
2023-03-28T08:53:01.942Z,7.45
2023-03-28T08:55:32.787Z,9.75
2023-03-28T08:58:02.390Z,8.02
2023-03-28T09:00:31.922Z,5.05
2023-03-28T09:02:59.955Z,8.88
2023-03-28T09:05:36.873Z,7.75
2023-03-28T09:08:19.889Z,5.72
2023-03-28T09:10:52.574Z,8.00
2023-03-28T09:13:33.955Z,4.25
2023-03-28T09:16:44.601Z,5.55
2023-03-28T09:19:37.140Z,5.05
2023-03-28T09:22:23.490Z,9.55
2023-03-28T09:24:58.402Z,6.10
2023-03-28T09:27:30.283Z,4.30
2023-03-28T09:30:04.564Z,9.05
2023-03-28T09:32:37.305Z,4.90
2023-03-28T09:35:15.900Z,7.43
2023-03-28T09:37:45.664Z,6.25
2023-03-28T09:40:21.612Z,6.22
2023-03-28T09:42:56.935Z,3.95
2023-03-28T09:45:35.128Z,4.45
2023-03-28T09:48:03.658Z,4.93
2023-03-28T09:50:31.698Z,5.40
2023-03-28T09:53:00.308Z,5.95
2023-03-28T09:55:30.103Z,5.78
2023-03-28T09:58:02.706Z,7.85
2023-03-28T10:00:35.913Z,8.10
2023-03-28T10:03:04.048Z,7.10
2023-03-28T10:05:35.145Z,5.25
2023-03-28T10:08:05.605Z,5.78
2023-03-28T10:10:33.747Z,8.23
2023-03-28T10:13:04.328Z,5.13
2023-03-28T10:15:41.748Z,4.72
2023-03-28T10:18:16.617Z,5.07
2023-03-28T10:20:45.332Z,5.25
2023-03-28T10:23:14.333Z,5.22
2023-03-28T10:25:44.357Z,4.80
2023-03-28T10:28:17.769Z,3.95
2023-03-28T10:30:53.615Z,5.13
2023-03-28T10:33:25.753Z,4.78
2023-03-28T10:35:59.418Z,3.90
2023-03-28T10:38:32.532Z,3.95
2023-03-28T10:41:03.461Z,4.20
2023-03-28T10:43:37.288Z,4.93
2023-03-28T10:46:12.691Z,4.30
2023-03-28T10:48:42.201Z,4.63
2023-03-28T10:51:16.914Z,4.75
2023-03-28T10:54:13.116Z,6.78
2023-03-28T10:56:43.176Z,4.18
2023-03-28T10:59:47.079Z,5.00
2023-03-28T11:02:40.401Z,5.13
2023-03-28T11:05:28.747Z,4.90
2023-03-28T11:08:01.731Z,4.40
2023-03-28T11:10:36.514Z,4.72
2023-03-28T11:13:12.640Z,5.85
2023-03-28T11:15:44.368Z,5.32
2023-03-28T11:18:26.967Z,6.35
2023-03-28T11:21:04.331Z,7.72
2023-03-28T11:23:42.556Z,6.28
2023-03-28T11:26:13.232Z,5.15
2023-03-28T11:28:53.802Z,5.30
2023-03-28T11:31:26.099Z,8.43
2023-03-28T11:33:59.216Z,7.47
2023-03-28T11:36:32.521Z,5.03
2023-03-28T11:39:05.326Z,5.88
2023-03-28T11:41:35.312Z,7.43
2023-03-28T11:44:06.092Z,5.53
2023-03-28T11:46:38.213Z,8.65
2023-03-28T11:49:16.888Z,5.53
2023-03-28T11:51:48.232Z,7.13
2023-03-28T11:54:18.536Z,7.45
2023-03-28T11:56:53.417Z,4.82
2023-03-28T11:59:26.105Z,3.85
2023-03-28T12:01:57.954Z,5.18
2023-03-28T12:04:29.834Z,4.95
2023-03-28T12:07:07.288Z,6.50
2023-03-28T12:09:38.378Z,5.15
2023-03-28T12:12:11.834Z,5.35
2023-03-28T12:14:47.102Z,3.08
2023-03-28T12:17:18.279Z,9.80
2023-03-28T12:19:49.263Z,5.72
2023-03-28T12:22:21.427Z,4.80
2023-03-28T12:24:55.948Z,5.00
2023-03-28T12:27:31.454Z,3.22
2023-03-28T12:30:01.027Z,4.80
2023-03-28T12:32:42.212Z,4.20
2023-03-28T12:35:17.942Z,5.15
2023-03-28T12:38:00.471Z,4.80
2023-03-28T12:40:31.253Z,5.57
2023-03-28T12:42:59.646Z,6.20
2023-03-28T12:45:31.159Z,6.38
2023-03-28T12:48:04.371Z,5.13
2023-03-28T12:50:39.117Z,4.68
2023-03-28T12:53:08.651Z,6.05
2023-03-28T12:55:43.625Z,4.90
2023-03-28T12:58:26.814Z,4.10
2023-03-28T13:01:14.953Z,3.63
2023-03-28T13:03:51.321Z,3.45
2023-03-28T13:06:27.469Z,6.45
2023-03-28T13:09:06.971Z,3.85
2023-03-28T13:11:41.103Z,3.90
2023-03-28T13:14:28.663Z,5.95
2023-03-28T13:16:57.935Z,5.18
2023-03-28T13:19:39.783Z,2.80
2023-03-28T13:22:27.157Z,4.25
2023-03-28T13:24:55.371Z,6.13
2023-03-28T13:27:33.414Z,7.60
2023-03-28T13:30:03.799Z,5.35
2023-03-28T13:32:35.056Z,6.13
2023-03-28T13:35:05.498Z,7.35
2023-03-28T13:37:48.460Z,6.55
2023-03-28T13:40:48.374Z,6.28
2023-03-28T13:43:24.716Z,4.35
2023-03-28T13:45:55.014Z,5.03
2023-03-28T13:48:25.020Z,8.55
2023-03-28T13:50:53.715Z,8.98
2023-03-28T13:53:23.103Z,4.63
2023-03-28T13:56:07.777Z,5.00
2023-03-28T13:58:35.824Z,9.15
2023-03-28T14:01:08.868Z,8.15
2023-03-28T14:03:37.014Z,6.38
2023-03-28T14:06:14.089Z,6.07
2023-03-28T14:08:48.392Z,5.38
2023-03-28T14:11:18.576Z,5.05
2023-03-28T14:13:47.344Z,9.38
2023-03-28T14:16:17.337Z,5.30
2023-03-28T14:18:47.879Z,6.25
2023-03-28T14:21:16.224Z,5.63
2023-03-28T14:24:00.209Z,5.00
2023-03-28T14:26:30.835Z,5.90
2023-03-28T14:29:01.222Z,5.35
2023-03-28T14:31:30.897Z,6.10
2023-03-28T14:33:59.546Z,2.58
2023-03-28T14:36:31.012Z,3.15
2023-03-28T14:39:13.388Z,3.88
2023-03-28T14:41:43.256Z,9.15
2023-03-28T14:44:13.923Z,3.90
2023-03-28T14:46:42.358Z,5.05
2023-03-28T14:49:18.226Z,5.10
2023-03-28T14:51:48.620Z,3.40
2023-03-28T14:54:25.261Z,4.53
2023-03-28T14:56:53.864Z,3.58
2023-03-28T14:59:22.578Z,2.90
2023-03-28T15:01:51.951Z,6.00
2023-03-28T15:04:21.032Z,5.05
2023-03-28T15:06:55.784Z,10.70
2023-03-28T15:09:28.738Z,3.63
2023-03-28T15:11:57.424Z,4.28
2023-03-28T15:14:33.500Z,4.20
2023-03-28T15:17:01.745Z,5.50
2023-03-28T15:19:34.595Z,5.03
2023-03-28T15:22:04.303Z,5.60
2023-03-28T15:24:33.771Z,5.28
2023-03-28T15:27:03.772Z,6.68
2023-03-28T15:29:35.740Z,6.40
2023-03-28T15:32:05.902Z,7.88
2023-03-28T15:34:44.317Z,3.47
2023-03-28T15:37:18.046Z,4.68
2023-03-28T15:39:50.695Z,5.40
2023-03-28T15:42:35.420Z,5.82
2023-03-28T15:45:31.396Z,5.22
2023-03-28T15:47:59.349Z,4.43
2023-03-28T15:50:33.127Z,4.63
2023-03-28T15:53:02.112Z,3.40
2023-03-28T15:55:32.112Z,4.80
2023-03-28T15:58:00.414Z,2.95
2023-03-28T16:00:40.291Z,5.25
2023-03-28T16:03:36.707Z,6.00
2023-03-28T16:06:26.735Z,6.22
2023-03-28T16:09:15.801Z,3.70
2023-03-28T16:11:45.769Z,4.32
2023-03-28T16:14:15.540Z,1.83
2023-03-28T16:16:43.476Z,2.45
2023-03-28T16:19:17.390Z,3.08
2023-03-28T16:21:45.613Z,3.28
2023-03-28T16:24:13.544Z,3.22
2023-03-28T16:26:41.473Z,3.28
2023-03-28T16:29:11.401Z,3.97
2023-03-28T16:31:39.515Z,4.00
2023-03-28T16:34:09.798Z,3.97
2023-03-28T16:36:38.551Z,4.30
2023-03-28T16:39:06.559Z,7.93
2023-03-28T16:41:34.540Z,4.70
2023-03-28T16:44:02.540Z,7.00
2023-03-28T16:46:31.949Z,5.55
2023-03-28T16:49:00.014Z,8.80
2023-03-28T16:51:27.899Z,4.25
2023-03-28T16:53:55.853Z,6.63
2023-03-28T16:56:26.792Z,5.30
2023-03-28T16:58:54.749Z,3.70
2023-03-28T17:01:22.895Z,5.75
2023-03-28T17:03:53.661Z,4.25
2023-03-28T17:06:21.927Z,3.50
2023-03-28T17:08:51.216Z,4.22
2023-03-28T17:11:20.588Z,3.13
2023-03-28T17:13:52.578Z,6.03
2023-03-28T17:16:20.543Z,3.40
2023-03-28T17:18:48.477Z,6.15
2023-03-28T17:21:19.429Z,3.42
2023-03-28T17:23:48.859Z,5.72
2023-03-28T17:26:17.199Z,2.63
2023-03-28T17:28:45.848Z,2.38
2023-03-28T17:31:16.045Z,5.05
2023-03-28T17:33:44.509Z,3.70
2023-03-28T17:36:21.527Z,4.22
2023-03-28T17:38:50.647Z,2.22
2023-03-28T17:41:18.665Z,2.35
2023-03-28T17:43:47.368Z,5.63
2023-03-28T17:46:15.559Z,4.07
2023-03-28T17:48:43.598Z,4.45
2023-03-28T17:51:12.574Z,6.13
2023-03-28T17:53:42.985Z,1.90
2023-03-28T17:56:12.416Z,4.05
2023-03-28T17:58:40.378Z,4.13
2023-03-28T18:01:10.419Z,4.03
2023-03-28T18:03:39.074Z,3.28
2023-03-28T18:06:07.913Z,3.50
2023-03-28T18:08:35.941Z,3.97
2023-03-28T18:11:07.365Z,3.28
2023-03-28T18:13:36.211Z,2.25
2023-03-28T18:16:05.401Z,2.63
2023-03-28T18:18:33.795Z,2.50
2023-03-28T18:21:04.305Z,2.13
2023-03-28T18:23:32.464Z,3.00
2023-03-28T18:26:00.748Z,2.15
2023-03-28T18:28:30.380Z,5.32
2023-03-28T18:31:07.593Z,4.45
2023-03-28T18:33:35.820Z,2.78
2023-03-28T18:36:04.250Z,5.38
2023-03-28T18:38:36.900Z,3.08
2023-03-28T18:41:05.343Z,2.47
2023-03-28T18:43:34.716Z,3.03
2023-03-28T18:46:02.993Z,3.60
2023-03-28T18:48:31.285Z,4.88
2023-03-28T18:50:59.242Z,4.25
2023-03-28T18:53:27.687Z,4.15
2023-03-28T18:55:55.783Z,4.38
2023-03-28T18:58:25.595Z,4.50
2023-03-28T19:00:59.348Z,3.80
2023-03-28T19:03:28.387Z,4.50
2023-03-28T19:05:57.602Z,4.70
2023-03-28T19:08:26.425Z,3.50
2023-03-28T19:10:54.665Z,3.58
2023-03-28T19:13:22.794Z,4.47
2023-03-28T19:16:00.222Z,3.38
2023-03-28T19:18:28.601Z,3.70
2023-03-28T19:20:58.244Z,3.75
2023-03-28T19:23:27.839Z,6.28
2023-03-28T19:25:56.184Z,3.90
2023-03-28T19:28:24.607Z,3.72
2023-03-28T19:30:59.280Z,2.72
2023-03-28T19:33:27.361Z,4.57
2023-03-28T19:35:55.681Z,3.17
2023-03-28T19:38:24.375Z,3.90
2023-03-28T19:40:58.270Z,3.60
2023-03-28T19:43:26.395Z,3.40
2023-03-28T19:45:54.488Z,2.55
2023-03-28T19:48:24.284Z,4.20
2023-03-28T19:50:52.178Z,2.22
2023-03-28T19:53:20.143Z,2.90
2023-03-28T19:55:52.352Z,3.05
2023-03-28T19:58:20.305Z,4.30
2023-03-28T20:00:49.214Z,1.77
2023-03-28T20:03:17.591Z,2.25
2023-03-28T20:05:47.957Z,2.58
2023-03-28T20:08:15.997Z,2.15
2023-03-28T20:10:45.859Z,2.10
2023-03-28T20:13:13.996Z,3.10
2023-03-28T20:15:43.401Z,3.65
2023-03-28T20:18:14.450Z,3.83
2023-03-28T20:20:43.001Z,2.72
2023-03-28T20:23:12.756Z,3.63
2023-03-28T20:25:40.701Z,2.63
2023-03-28T20:28:10.061Z,2.17
2023-03-28T20:30:38.126Z,1.92
2023-03-28T20:33:06.189Z,3.97
2023-03-28T20:35:34.248Z,1.55
2023-03-28T20:38:02.268Z,1.92
2023-03-28T20:40:31.530Z,2.80
2023-03-28T20:43:01.934Z,2.08
2023-03-28T20:45:29.828Z,2.88
2023-03-28T20:47:59.053Z,2.70
2023-03-28T20:50:33.766Z,2.85
2023-03-28T20:53:03.184Z,2.28
2023-03-28T20:55:33.112Z,3.40
2023-03-28T20:58:01.887Z,1.65
2023-03-28T21:00:33.759Z,1.30
2023-03-28T21:03:03.483Z,2.10
2023-03-28T21:05:31.683Z,2.75
2023-03-28T21:08:00.360Z,2.03
2023-03-28T21:10:28.919Z,2.20
2023-03-28T21:12:58.215Z,2.47
2023-03-28T21:15:28.028Z,3.40
2023-03-28T21:17:56.448Z,2.17
2023-03-28T21:20:24.409Z,2.05
2023-03-28T21:22:53.653Z,3.03
2023-03-28T21:25:21.580Z,3.88
2023-03-28T21:27:49.546Z,1.50
2023-03-28T21:30:19.476Z,3.92
2023-03-28T21:32:47.899Z,2.60
2023-03-28T21:35:16.431Z,2.88
2023-03-28T21:37:44.439Z,4.85
2023-03-28T21:40:13.191Z,3.78
2023-03-28T21:42:41.259Z,2.35
2023-03-28T21:45:11.666Z,2.60
2023-03-28T21:47:41.547Z,2.03
2023-03-28T21:50:11.964Z,2.28
2023-03-28T21:52:41.743Z,2.72
2023-03-28T21:55:10.459Z,2.65
2023-03-28T21:57:39.549Z,4.07
2023-03-28T22:00:15.058Z,2.60
2023-03-28T22:02:45.501Z,3.88
2023-03-28T22:05:28.250Z,1.67
2023-03-28T22:07:57.748Z,1.77
2023-03-28T22:10:27.063Z,1.45
2023-03-28T22:12:54.931Z,2.03
2023-03-28T22:15:22.845Z,3.53
2023-03-28T22:17:57.857Z,3.20
2023-03-28T22:20:27.273Z,3.50
2023-03-28T22:23:00.380Z,4.53
2023-03-28T22:25:35.874Z,2.42
2023-03-28T22:28:05.056Z,2.35
2023-03-28T22:30:33.162Z,2.72
2023-03-28T22:33:03.879Z,1.83
2023-03-28T22:35:33.629Z,3.05
2023-03-28T22:38:01.762Z,3.90
2023-03-28T22:40:29.721Z,3.75
2023-03-28T22:42:57.652Z,2.72
2023-03-28T22:45:26.443Z,3.97
2023-03-28T22:47:58.307Z,2.70
2023-03-28T22:50:28.505Z,2.58
2023-03-28T22:52:57.140Z,1.40
2023-03-28T22:55:25.489Z,2.92
2023-03-28T22:57:53.920Z,2.42
2023-03-28T23:00:23.270Z,2.83
2023-03-28T23:02:52.287Z,4.13
2023-03-28T23:05:20.852Z,4.18
2023-03-28T23:07:50.645Z,5.03
2023-03-28T23:10:19.960Z,2.15
2023-03-28T23:12:48.722Z,3.40
2023-03-28T23:15:17.005Z,4.00
2023-03-28T23:17:45.713Z,3.47
2023-03-28T23:20:14.678Z,5.05
2023-03-28T23:22:44.814Z,2.63
2023-03-28T23:25:15.102Z,3.08
2023-03-28T23:27:43.760Z,1.63
2023-03-28T23:30:13.730Z,2.58
2023-03-28T23:32:41.864Z,2.80
2023-03-28T23:35:11.725Z,3.42
2023-03-28T23:37:40.132Z,3.35
2023-03-28T23:40:14.204Z,3.67
2023-03-28T23:42:45.195Z,4.60
2023-03-28T23:45:13.994Z,5.07
2023-03-28T23:47:42.266Z,3.85
2023-03-28T23:50:11.156Z,4.32
2023-03-28T23:52:39.867Z,5.10
2023-03-28T23:55:08.984Z,5.38
2023-03-28T23:57:37.317Z,3.42
